sensor_id;sensor_type;location;lat;lon;timestamp;pressure;altitude;pressure_sealevel;temperature;humidity
33189;BME280;52601;53.070;10.600;2022-09-21T00:02:08;102211.69;;;6.75;100.00
33189;BME280;52601;53.070;10.600;2022-09-21T00:04:54;102207.38;;;6.73;100.00
33189;BME280;52601;53.070;10.600;2022-09-21T00:07:39;102213.53;;;6.66;100.00
33189;BME280;52601;53.070;10.600;2022-09-21T00:10:24;102208.25;;;6.72;100.00
33189;BME280;52601;53.070;10.600;2022-09-21T00:13:10;102206.44;;;6.81;100.00
33189;BME280;52601;53.070;10.600;2022-09-21T00:15:56;102209.97;;;6.73;100.00
33189;BME280;52601;53.070;10.600;2022-09-21T00:18:41;102214.38;;;6.65;100.00
33189;BME280;52601;53.070;10.600;2022-09-21T00:21:27;102214.41;;;6.59;100.00
33189;BME280;52601;53.070;10.600;2022-09-21T00:24:12;102214.50;;;6.48;100.00
33189;BME280;52601;53.070;10.600;2022-09-21T00:26:58;102212.84;;;6.38;100.00
33189;BME280;52601;53.070;10.600;2022-09-21T00:29:43;102218.06;;;6.40;100.00
33189;BME280;52601;53.070;10.600;2022-09-21T00:32:29;102221.47;;;6.45;100.00
33189;BME280;52601;53.070;10.600;2022-09-21T00:35:15;102217.09;;;6.48;100.00
33189;BME280;52601;53.070;10.600;2022-09-21T00:38:01;102217.09;;;6.48;100.00
33189;BME280;52601;53.070;10.600;2022-09-21T00:40:46;102222.44;;;6.33;100.00
33189;BME280;52601;53.070;10.600;2022-09-21T00:43:32;102211.22;;;6.24;100.00
33189;BME280;52601;53.070;10.600;2022-09-21T00:46:26;102211.19;;;6.28;100.00
33189;BME280;52601;53.070;10.600;2022-09-21T00:49:12;102217.25;;;6.27;100.00
33189;BME280;52601;53.070;10.600;2022-09-21T00:51:58;102218.13;;;6.28;100.00
33189;BME280;52601;53.070;10.600;2022-09-21T00:54:53;102222.47;;;6.26;100.00
33189;BME280;52601;53.070;10.600;2022-09-21T00:57:39;102221.59;;;6.28;100.00
33189;BME280;52601;53.070;10.600;2022-09-21T01:00:25;102213.84;;;6.19;100.00
33189;BME280;52601;53.070;10.600;2022-09-21T01:03:11;102216.47;;;6.13;100.00
33189;BME280;52601;53.070;10.600;2022-09-21T01:05:56;102218.19;;;6.13;100.00
33189;BME280;52601;53.070;10.600;2022-09-21T01:08:41;102224.31;;;6.08;100.00
33189;BME280;52601;53.070;10.600;2022-09-21T01:14:53;102218.25;;;6.05;100.00
33189;BME280;52601;53.070;10.600;2022-09-21T01:17:56;102226.91;;;6.07;100.00
33189;BME280;52601;53.070;10.600;2022-09-21T01:20:50;102221.72;;;6.10;100.00
33189;BME280;52601;53.070;10.600;2022-09-21T01:29:51;102220.88;;;5.99;100.00
33189;BME280;52601;53.070;10.600;2022-09-21T01:35:28;102215.72;;;5.93;100.00
33189;BME280;52601;53.070;10.600;2022-09-21T01:38:23;102223.50;;;6.00;100.00
33189;BME280;52601;53.070;10.600;2022-09-21T01:41:11;102216.53;;;6.01;100.00
33189;BME280;52601;53.070;10.600;2022-09-21T01:44:14;102204.47;;;5.86;100.00
33189;BME280;52601;53.070;10.600;2022-09-21T01:47:02;102182.81;;;5.69;100.00
33189;BME280;52601;53.070;10.600;2022-09-21T01:49:52;102223.53;;;5.87;100.00
33189;BME280;52601;53.070;10.600;2022-09-21T01:52:41;102225.28;;;5.82;100.00
33189;BME280;52601;53.070;10.600;2022-09-21T01:55:39;102225.28;;;5.85;100.00
33189;BME280;52601;53.070;10.600;2022-09-21T01:58:30;102223.53;;;5.91;100.00
33189;BME280;52601;53.070;10.600;2022-09-21T02:01:19;102222.69;;;5.89;100.00
33189;BME280;52601;53.070;10.600;2022-09-21T02:04:07;102221.84;;;5.78;100.00
33189;BME280;52601;53.070;10.600;2022-09-21T02:06:53;102225.31;;;5.86;100.00
33189;BME280;52601;53.070;10.600;2022-09-21T02:09:39;102208.91;;;5.56;100.00
33189;BME280;52601;53.070;10.600;2022-09-21T02:12:24;102227.94;;;5.67;100.00
33189;BME280;52601;53.070;10.600;2022-09-21T02:15:10;102232.31;;;5.62;100.00
33189;BME280;52601;53.070;10.600;2022-09-21T02:18:04;102235.75;;;5.64;100.00
33189;BME280;52601;53.070;10.600;2022-09-21T02:20:52;102234.84;;;5.75;100.00
33189;BME280;52601;53.070;10.600;2022-09-21T02:23:54;102233.13;;;5.86;100.00
33189;BME280;52601;53.070;10.600;2022-09-21T02:26:44;102232.19;;;5.83;100.00
33189;BME280;52601;53.070;10.600;2022-09-21T02:29:45;102233.09;;;5.73;100.00
33189;BME280;52601;53.070;10.600;2022-09-21T02:32:55;102238.28;;;5.82;100.00
33189;BME280;52601;53.070;10.600;2022-09-21T02:35:54;102236.59;;;5.69;100.00
33189;BME280;52601;53.070;10.600;2022-09-21T02:41:34;102244.44;;;5.55;100.00
33189;BME280;52601;53.070;10.600;2022-09-21T02:44:31;102248.81;;;5.52;100.00
33189;BME280;52601;53.070;10.600;2022-09-21T02:47:26;102247.91;;;5.62;100.00
33189;BME280;52601;53.070;10.600;2022-09-21T02:50:18;102247.91;;;5.62;100.00
33189;BME280;52601;53.070;10.600;2022-09-21T02:53:05;102248.75;;;5.67;100.00
33189;BME280;52601;53.070;10.600;2022-09-21T02:55:53;102250.53;;;5.56;100.00
33189;BME280;52601;53.070;10.600;2022-09-21T02:58:42;102254.03;;;5.49;100.00
33189;BME280;52601;53.070;10.600;2022-09-21T03:01:29;102255.78;;;5.47;100.00
33189;BME280;52601;53.070;10.600;2022-09-21T03:04:15;102260.97;;;5.44;100.00
33189;BME280;52601;53.070;10.600;2022-09-21T03:07:00;102260.97;;;5.41;100.00
33189;BME280;52601;53.070;10.600;2022-09-21T03:09:47;102262.72;;;5.36;100.00
33189;BME280;52601;53.070;10.600;2022-09-21T03:12:33;102267.91;;;5.42;100.00
33189;BME280;52601;53.070;10.600;2022-09-21T03:15:18;102266.16;;;5.38;100.00
33189;BME280;52601;53.070;10.600;2022-09-21T03:18:04;102264.47;;;5.32;100.00
33189;BME280;52601;53.070;10.600;2022-09-21T03:20:49;102265.31;;;5.34;100.00
33189;BME280;52601;53.070;10.600;2022-09-21T03:23:35;102264.44;;;5.40;100.00
33189;BME280;52601;53.070;10.600;2022-09-21T03:26:20;102261.84;;;5.37;100.00
33189;BME280;52601;53.070;10.600;2022-09-21T03:29:06;102262.72;;;5.23;100.00
33189;BME280;52601;53.070;10.600;2022-09-21T03:31:52;102260.16;;;5.16;100.00
33189;BME280;52601;53.070;10.600;2022-09-21T03:34:38;102259.28;;;5.09;100.00
33189;BME280;52601;53.070;10.600;2022-09-21T03:37:23;102274.00;;;5.07;100.00
33189;BME280;52601;53.070;10.600;2022-09-21T03:40:09;102267.97;;;5.13;100.00
33189;BME280;52601;53.070;10.600;2022-09-21T03:42:56;102277.47;;;5.28;100.00
33189;BME280;52601;53.070;10.600;2022-09-21T03:45:41;102274.03;;;5.09;100.00
33189;BME280;52601;53.070;10.600;2022-09-21T03:48:27;102274.00;;;5.07;100.00
33189;BME280;52601;53.070;10.600;2022-09-21T03:51:12;102278.34;;;5.02;100.00
33189;BME280;52601;53.070;10.600;2022-09-21T03:53:58;102280.94;;;4.90;100.00
33189;BME280;52601;53.070;10.600;2022-09-21T03:56:43;102274.00;;;4.82;100.00
33189;BME280;52601;53.070;10.600;2022-09-21T03:59:28;102289.59;;;4.79;100.00
33189;BME280;52601;53.070;10.600;2022-09-21T04:02:14;102280.94;;;4.84;100.00
33189;BME280;52601;53.070;10.600;2022-09-21T04:05:00;102282.66;;;5.03;100.00
33189;BME280;52601;53.070;10.600;2022-09-21T04:07:46;102275.75;;;4.96;100.00
33189;BME280;52601;53.070;10.600;2022-09-21T04:10:31;102282.69;;;4.88;100.00
33189;BME280;52601;53.070;10.600;2022-09-21T04:13:19;102288.75;;;4.84;100.00
33189;BME280;52601;53.070;10.600;2022-09-21T04:16:04;102289.59;;;4.79;100.00
33189;BME280;52601;53.070;10.600;2022-09-21T04:18:50;102285.28;;;4.81;100.00
33189;BME280;52601;53.070;10.600;2022-09-21T04:21:35;102287.00;;;4.79;100.00
33189;BME280;52601;53.070;10.600;2022-09-21T04:24:21;102287.84;;;4.79;100.00
33189;BME280;52601;53.070;10.600;2022-09-21T04:27:07;102289.59;;;4.82;100.00
33189;BME280;52601;53.070;10.600;2022-09-21T04:29:52;102274.00;;;4.74;100.00
33189;BME280;52601;53.070;10.600;2022-09-21T04:32:37;102290.47;;;4.82;100.00
33189;BME280;52601;53.070;10.600;2022-09-21T04:35:22;102293.06;;;4.78;100.00
33189;BME280;52601;53.070;10.600;2022-09-21T04:38:08;102287.84;;;4.70;100.00
33189;BME280;52601;53.070;10.600;2022-09-21T04:40:56;102286.97;;;4.56;100.00
33189;BME280;52601;53.070;10.600;2022-09-21T04:43:45;102286.09;;;4.54;100.00
33189;BME280;52601;53.070;10.600;2022-09-21T04:46:31;102294.75;;;4.58;100.00
33189;BME280;52601;53.070;10.600;2022-09-21T04:49:16;102287.88;;;4.69;100.00
33189;BME280;52601;53.070;10.600;2022-09-21T04:52:01;102300.00;;;4.85;100.00
33189;BME280;52601;53.070;10.600;2022-09-21T04:54:47;102295.66;;;4.97;100.00
33189;BME280;52601;53.070;10.600;2022-09-21T04:57:32;102300.84;;;4.76;100.00
33189;BME280;52601;53.070;10.600;2022-09-21T05:00:18;102309.50;;;4.72;100.00
33189;BME280;52601;53.070;10.600;2022-09-21T05:03:03;102306.91;;;4.74;100.00
33189;BME280;52601;53.070;10.600;2022-09-21T05:05:49;102312.06;;;4.56;100.00
33189;BME280;52601;53.070;10.600;2022-09-21T05:08:35;102313.78;;;4.54;100.00
33189;BME280;52601;53.070;10.600;2022-09-21T05:11:38;102314.66;;;4.56;100.00
33189;BME280;52601;53.070;10.600;2022-09-21T05:14:24;102323.34;;;4.62;100.00
33189;BME280;52601;53.070;10.600;2022-09-21T05:17:10;102322.50;;;4.65;100.00
33189;BME280;52601;53.070;10.600;2022-09-21T05:19:55;102322.50;;;4.69;100.00
33189;BME280;52601;53.070;10.600;2022-09-21T05:22:41;102330.31;;;4.78;100.00
33189;BME280;52601;53.070;10.600;2022-09-21T05:25:26;102333.75;;;4.83;100.00
33189;BME280;52601;53.070;10.600;2022-09-21T05:28:11;102330.31;;;4.84;100.00
33189;BME280;52601;53.070;10.600;2022-09-21T05:30:59;102337.22;;;4.85;100.00
33189;BME280;52601;53.070;10.600;2022-09-21T05:34:17;102335.50;;;4.80;100.00
33189;BME280;52601;53.070;10.600;2022-09-21T05:37:06;102332.03;;;4.79;100.00
33189;BME280;52601;53.070;10.600;2022-09-21T05:39:53;102337.25;;;4.94;100.00
33189;BME280;52601;53.070;10.600;2022-09-21T05:42:38;102338.13;;;5.04;100.00
33189;BME280;52601;53.070;10.600;2022-09-21T05:45:24;102341.59;;;5.12;100.00
33189;BME280;52601;53.070;10.600;2022-09-21T05:48:12;102333.78;;;5.19;100.00
33189;BME280;52601;53.070;10.600;2022-09-21T05:51:09;102333.81;;;5.30;100.00
33189;BME280;52601;53.070;10.600;2022-09-21T05:54:06;102330.31;;;5.42;100.00
33189;BME280;52601;53.070;10.600;2022-09-21T06:06:01;102336.25;;;6.18;100.00
33189;BME280;52601;53.070;10.600;2022-09-21T06:08:47;102339.66;;;6.32;100.00
33189;BME280;52601;53.070;10.600;2022-09-21T06:11:32;102337.81;;;6.52;100.00
33189;BME280;52601;53.070;10.600;2022-09-21T06:14:17;102342.84;;;6.82;100.00
33189;BME280;52601;53.070;10.600;2022-09-21T06:17:08;102339.09;;;7.19;100.00
33189;BME280;52601;53.070;10.600;2022-09-21T06:19:54;102340.72;;;7.31;100.00
33189;BME280;52601;53.070;10.600;2022-09-21T06:22:39;102338.81;;;7.48;100.00
33189;BME280;52601;53.070;10.600;2022-09-21T06:25:24;102340.41;;;7.64;100.00
33189;BME280;52601;53.070;10.600;2022-09-21T06:28:11;102345.44;;;7.83;100.00
33189;BME280;52601;53.070;10.600;2022-09-21T06:30:56;102339.13;;;8.03;100.00
33189;BME280;52601;53.070;10.600;2022-09-21T06:33:42;102339.78;;;8.23;100.00
33189;BME280;52601;53.070;10.600;2022-09-21T06:36:32;102337.69;;;8.50;100.00
33189;BME280;52601;53.070;10.600;2022-09-21T06:39:17;102343.44;;;8.77;100.00
33189;BME280;52601;53.070;10.600;2022-09-21T06:42:02;102345.72;;;8.98;100.00
33189;BME280;52601;53.070;10.600;2022-09-21T06:44:47;102339.09;;;9.29;100.00
33189;BME280;52601;53.070;10.600;2022-09-21T06:47:32;102336.03;;;9.54;100.00
33189;BME280;52601;53.070;10.600;2022-09-21T06:50:18;102344.38;;;9.75;100.00
33189;BME280;52601;53.070;10.600;2022-09-21T06:53:03;102334.13;;;10.11;100.00
33189;BME280;52601;53.070;10.600;2022-09-21T06:55:49;102342.19;;;10.42;100.00
33189;BME280;52601;53.070;10.600;2022-09-21T06:58:34;102338.63;;;10.84;100.00
33189;BME280;52601;53.070;10.600;2022-09-21T07:01:21;102347.09;;;11.32;100.00
33189;BME280;52601;53.070;10.600;2022-09-21T07:04:07;102348.75;;;11.70;100.00
33189;BME280;52601;53.070;10.600;2022-09-21T07:06:53;102341.47;;;12.11;100.00
33189;BME280;52601;53.070;10.600;2022-09-21T07:09:38;102343.50;;;12.62;96.77
33189;BME280;52601;53.070;10.600;2022-09-21T07:12:43;102344.44;;;13.16;93.83
33189;BME280;52601;53.070;10.600;2022-09-21T07:15:29;102339.97;;;13.69;89.75
33189;BME280;52601;53.070;10.600;2022-09-21T07:18:15;102337.53;;;14.37;84.27
33189;BME280;52601;53.070;10.600;2022-09-21T07:21:04;102339.34;;;14.80;82.59
33189;BME280;52601;53.070;10.600;2022-09-21T07:23:49;102345.44;;;15.46;79.11
33189;BME280;52601;53.070;10.600;2022-09-21T07:26:34;102340.34;;;15.82;80.79
33189;BME280;52601;53.070;10.600;2022-09-21T07:29:21;102343.53;;;16.48;75.97
33189;BME280;52601;53.070;10.600;2022-09-21T07:32:06;102335.00;;;16.97;72.52
33189;BME280;52601;53.070;10.600;2022-09-21T07:34:52;102346.84;;;17.43;72.35
33189;BME280;52601;53.070;10.600;2022-09-21T07:37:41;102349.94;;;17.16;73.58
33189;BME280;52601;53.070;10.600;2022-09-21T07:40:26;102342.91;;;18.34;68.91
33189;BME280;52601;53.070;10.600;2022-09-21T07:43:11;102351.31;;;17.93;69.74
33189;BME280;52601;53.070;10.600;2022-09-21T07:45:57;102350.09;;;18.96;66.45
33189;BME280;52601;53.070;10.600;2022-09-21T07:48:42;102344.19;;;19.51;65.17
33189;BME280;52601;53.070;10.600;2022-09-21T07:51:27;102345.72;;;20.13;62.39
33189;BME280;52601;53.070;10.600;2022-09-21T07:54:13;102345.22;;;19.93;62.29
33189;BME280;52601;53.070;10.600;2022-09-21T07:56:59;102350.19;;;19.10;64.08
33189;BME280;52601;53.070;10.600;2022-09-21T08:00:04;102350.88;;;18.66;67.56
33189;BME280;52601;53.070;10.600;2022-09-21T08:02:50;102352.69;;;18.81;68.16
33189;BME280;52601;53.070;10.600;2022-09-21T08:05:35;102355.84;;;19.64;67.63
33189;BME280;52601;53.070;10.600;2022-09-21T08:08:20;102349.13;;;21.12;61.57
33189;BME280;52601;53.070;10.600;2022-09-21T08:11:06;102343.44;;;21.31;62.91
33189;BME280;52601;53.070;10.600;2022-09-21T08:13:52;102349.63;;;22.59;58.03
33189;BME280;52601;53.070;10.600;2022-09-21T08:16:37;102341.94;;;23.83;53.38
33189;BME280;52601;53.070;10.600;2022-09-21T08:19:23;102345.28;;;24.53;52.82
33189;BME280;52601;53.070;10.600;2022-09-21T08:22:10;102351.72;;;23.02;55.31
33189;BME280;52601;53.070;10.600;2022-09-21T08:24:58;102340.09;;;23.73;54.93
33189;BME280;52601;53.070;10.600;2022-09-21T08:27:43;102345.00;;;23.44;54.83
33189;BME280;52601;53.070;10.600;2022-09-21T08:30:28;102348.31;;;25.25;52.00
33189;BME280;52601;53.070;10.600;2022-09-21T08:33:15;102338.59;;;25.44;50.48
33189;BME280;52601;53.070;10.600;2022-09-21T08:36:01;102337.38;;;24.08;52.73
33189;BME280;52601;53.070;10.600;2022-09-21T08:38:47;102337.22;;;26.42;49.88
33189;BME280;52601;53.070;10.600;2022-09-21T08:44:26;102333.44;;;25.73;51.86
33189;BME280;52601;53.070;10.600;2022-09-21T08:53:12;102323.44;;;28.63;43.86
33189;BME280;52601;53.070;10.600;2022-09-21T08:55:58;102329.06;;;29.32;43.62
33189;BME280;52601;53.070;10.600;2022-09-21T08:58:44;102326.47;;;28.78;44.34
33189;BME280;52601;53.070;10.600;2022-09-21T09:04:19;102317.00;;;29.88;40.93
33189;BME280;52601;53.070;10.600;2022-09-21T09:10:28;102339.19;;;28.68;43.81
33189;BME280;52601;53.070;10.600;2022-09-21T09:13:20;102332.63;;;28.43;45.52
33189;BME280;52601;53.070;10.600;2022-09-21T09:16:16;102325.00;;;28.83;43.72
33189;BME280;52601;53.070;10.600;2022-09-21T09:19:15;102326.38;;;28.70;44.14
33189;BME280;52601;53.070;10.600;2022-09-21T09:22:03;102326.31;;;29.93;41.98
33189;BME280;52601;53.070;10.600;2022-09-21T09:24:51;102333.53;;;32.22;38.63
33189;BME280;52601;53.070;10.600;2022-09-21T09:27:40;102330.53;;;32.56;38.46
33189;BME280;52601;53.070;10.600;2022-09-21T09:30:28;102326.25;;;33.15;37.04
33189;BME280;52601;53.070;10.600;2022-09-21T09:33:22;102316.69;;;33.64;36.71
33189;BME280;52601;53.070;10.600;2022-09-21T09:36:10;102328.56;;;33.26;36.69
33189;BME280;52601;53.070;10.600;2022-09-21T09:38:56;102315.31;;;30.54;39.07
33189;BME280;52601;53.070;10.600;2022-09-21T09:41:45;102328.03;;;31.27;38.46
33189;BME280;52601;53.070;10.600;2022-09-21T09:44:46;102330.72;;;28.53;43.27
33189;BME280;52601;53.070;10.600;2022-09-21T09:47:59;102325.19;;;26.16;47.12
33189;BME280;52601;53.070;10.600;2022-09-21T09:50:48;102320.44;;;27.93;46.49
33189;BME280;52601;53.070;10.600;2022-09-21T09:53:33;102313.69;;;29.33;40.06
33189;BME280;52601;53.070;10.600;2022-09-21T09:56:19;102324.22;;;29.18;42.50
33189;BME280;52601;53.070;10.600;2022-09-21T09:59:07;102325.03;;;27.54;43.73
33189;BME280;52601;53.070;10.600;2022-09-21T10:01:59;102334.22;;;24.36;51.99
33189;BME280;52601;53.070;10.600;2022-09-21T10:07:59;102308.97;;;30.04;40.25
33189;BME280;52601;53.070;10.600;2022-09-21T10:10:45;102313.84;;;32.20;36.07
33189;BME280;52601;53.070;10.600;2022-09-21T10:13:32;102305.63;;;34.53;33.84
33189;BME280;52601;53.070;10.600;2022-09-21T10:16:19;102303.31;;;34.72;34.05
33189;BME280;52601;53.070;10.600;2022-09-21T10:19:10;102290.59;;;33.10;35.23
33189;BME280;52601;53.070;10.600;2022-09-21T10:22:02;102306.13;;;33.24;33.40
33189;BME280;52601;53.070;10.600;2022-09-21T10:24:49;102299.53;;;34.51;32.49
33189;BME280;52601;53.070;10.600;2022-09-21T10:27:36;102299.38;;;34.95;30.98
33189;BME280;52601;53.070;10.600;2022-09-21T10:30:34;102293.59;;;36.43;30.64
33189;BME280;52601;53.070;10.600;2022-09-21T10:33:21;102293.09;;;32.97;35.50
33189;BME280;52601;53.070;10.600;2022-09-21T10:36:06;102300.72;;;31.29;38.10
33189;BME280;52601;53.070;10.600;2022-09-21T10:39:48;102295.13;;;31.30;37.15
33189;BME280;52601;53.070;10.600;2022-09-21T10:42:15;102303.16;;;28.77;40.60
33189;BME280;52601;53.070;10.600;2022-09-21T10:45:15;102301.97;;;25.64;45.66
33189;BME280;52601;53.070;10.600;2022-09-21T10:50:49;102294.69;;;27.52;45.92
33189;BME280;52601;53.070;10.600;2022-09-21T10:53:35;102298.00;;;31.05;39.01
33189;BME280;52601;53.070;10.600;2022-09-21T10:56:20;102291.41;;;33.19;35.63
33189;BME280;52601;53.070;10.600;2022-09-21T10:59:10;102285.63;;;34.03;33.98
33189;BME280;52601;53.070;10.600;2022-09-21T11:01:59;102278.97;;;35.06;34.08
33189;BME280;52601;53.070;10.600;2022-09-21T11:04:46;102281.41;;;33.11;35.33
33189;BME280;52601;53.070;10.600;2022-09-21T11:07:38;102280.22;;;34.67;35.26
33189;BME280;52601;53.070;10.600;2022-09-21T11:13:46;102257.53;;;35.58;31.66
33189;BME280;52601;53.070;10.600;2022-09-21T11:16:36;102280.00;;;32.92;33.39
33189;BME280;52601;53.070;10.600;2022-09-21T11:25:00;102301.00;;;24.48;42.53
33189;BME280;52601;53.070;10.600;2022-09-21T11:27:50;102291.91;;;28.27;40.60
33189;BME280;52601;53.070;10.600;2022-09-21T11:30:42;102286.06;;;29.64;36.31
33189;BME280;52601;53.070;10.600;2022-09-21T11:39:19;102280.41;;;30.09;36.50
33189;BME280;52601;53.070;10.600;2022-09-21T11:42:19;102279.13;;;32.47;36.13
33189;BME280;52601;53.070;10.600;2022-09-21T11:45:21;102269.38;;;32.83;35.51
33189;BME280;52601;53.070;10.600;2022-09-21T11:48:14;102274.84;;;29.16;40.71
33189;BME280;52601;53.070;10.600;2022-09-21T11:51:26;102274.84;;;26.96;43.18
33189;BME280;52601;53.070;10.600;2022-09-21T11:54:36;102278.66;;;27.03;42.64
33189;BME280;52601;53.070;10.600;2022-09-21T11:57:30;102271.84;;;28.02;42.03
33189;BME280;52601;53.070;10.600;2022-09-21T12:00:20;102266.81;;;30.85;36.67
33189;BME280;52601;53.070;10.600;2022-09-21T12:06:02;102255.03;;;34.36;32.03
33189;BME280;52601;53.070;10.600;2022-09-21T12:08:53;102255.41;;;35.05;29.97
33189;BME280;52601;53.070;10.600;2022-09-21T12:11:45;102248.75;;;34.00;31.09
33189;BME280;52601;53.070;10.600;2022-09-21T12:14:39;102252.50;;;37.23;29.07
33189;BME280;52601;53.070;10.600;2022-09-21T12:20:15;102248.59;;;38.03;26.40
33189;BME280;52601;53.070;10.600;2022-09-21T12:23:06;102243.16;;;35.22;29.27
33189;BME280;52601;53.070;10.600;2022-09-21T12:25:56;102241.56;;;37.36;27.28
33189;BME280;52601;53.070;10.600;2022-09-21T12:28:47;102225.50;;;37.59;27.95
33189;BME280;52601;53.070;10.600;2022-09-21T12:31:40;102241.19;;;38.54;24.96
33189;BME280;52601;53.070;10.600;2022-09-21T12:34:30;102225.94;;;37.56;26.89
33189;BME280;52601;53.070;10.600;2022-09-21T12:37:28;102229.44;;;35.09;29.55
33189;BME280;52601;53.070;10.600;2022-09-21T12:43:19;102223.31;;;34.29;31.93
33189;BME280;52601;53.070;10.600;2022-09-21T12:46:08;102218.78;;;35.14;31.50
33189;BME280;52601;53.070;10.600;2022-09-21T12:48:58;102227.19;;;31.16;34.08
33189;BME280;52601;53.070;10.600;2022-09-21T12:51:46;102227.44;;;29.73;35.88
33189;BME280;52601;53.070;10.600;2022-09-21T12:54:41;102220.13;;;32.78;31.63
33189;BME280;52601;53.070;10.600;2022-09-21T12:57:48;102223.69;;;30.41;34.79
33189;BME280;52601;53.070;10.600;2022-09-21T13:01:12;102234.47;;;25.97;41.48
33189;BME280;52601;53.070;10.600;2022-09-21T13:10:07;102231.53;;;23.34;44.26
33189;BME280;52601;53.070;10.600;2022-09-21T13:12:58;102230.06;;;22.36;50.13
33189;BME280;52601;53.070;10.600;2022-09-21T13:15:46;102228.50;;;22.20;47.37
33189;BME280;52601;53.070;10.600;2022-09-21T13:18:33;102229.84;;;21.65;51.58
33189;BME280;52601;53.070;10.600;2022-09-21T13:21:24;102231.19;;;22.08;48.12
33189;BME280;52601;53.070;10.600;2022-09-21T13:24:26;102213.56;;;26.01;41.28
33189;BME280;52601;53.070;10.600;2022-09-21T13:27:13;102217.00;;;27.75;38.76
33189;BME280;52601;53.070;10.600;2022-09-21T13:36:06;102215.53;;;34.26;32.29
33189;BME280;52601;53.070;10.600;2022-09-21T13:38:55;102208.78;;;34.22;31.16
33189;BME280;52601;53.070;10.600;2022-09-21T13:41:41;102209.56;;;33.72;31.51
33189;BME280;52601;53.070;10.600;2022-09-21T13:44:46;102210.91;;;31.08;34.65
33189;BME280;52601;53.070;10.600;2022-09-21T13:47:32;102217.31;;;28.26;37.22
33189;BME280;52601;53.070;10.600;2022-09-21T13:50:22;102212.25;;;26.35;39.75
33189;BME280;52601;53.070;10.600;2022-09-21T13:53:16;102210.47;;;25.24;42.01
33189;BME280;52601;53.070;10.600;2022-09-21T13:56:15;102216.59;;;23.87;45.48
33189;BME280;52601;53.070;10.600;2022-09-21T13:59:02;102214.59;;;22.15;47.46
33189;BME280;52601;53.070;10.600;2022-09-21T14:01:47;102213.78;;;22.02;49.29
33189;BME280;52601;53.070;10.600;2022-09-21T14:04:33;102211.44;;;21.22;50.06
33189;BME280;52601;53.070;10.600;2022-09-21T14:07:21;102200.09;;;20.94;51.42
33189;BME280;52601;53.070;10.600;2022-09-21T14:10:17;102207.94;;;20.29;53.61
33189;BME280;52601;53.070;10.600;2022-09-21T14:13:05;102200.91;;;20.94;53.05
33189;BME280;52601;53.070;10.600;2022-09-21T14:15:51;102203.22;;;20.74;52.75
33189;BME280;52601;53.070;10.600;2022-09-21T14:18:36;102195.53;;;22.80;51.02
33189;BME280;52601;53.070;10.600;2022-09-21T14:21:22;102190.69;;;25.76;44.35
33189;BME280;52601;53.070;10.600;2022-09-21T14:24:16;102183.69;;;28.65;37.63
33189;BME280;52601;53.070;10.600;2022-09-21T14:30:31;102175.22;;;32.82;30.20
33189;BME280;52601;53.070;10.600;2022-09-21T14:33:29;102175.00;;;32.69;30.25
33189;BME280;52601;53.070;10.600;2022-09-21T14:36:18;102168.94;;;35.33;28.58
33189;BME280;52601;53.070;10.600;2022-09-21T14:39:12;102172.41;;;32.98;31.82
33189;BME280;52601;53.070;10.600;2022-09-21T14:42:08;102162.69;;;33.18;30.31
33189;BME280;52601;53.070;10.600;2022-09-21T14:44:57;102168.81;;;31.99;32.68
33189;BME280;52601;53.070;10.600;2022-09-21T14:53:56;102161.31;;;34.73;28.47
33189;BME280;52601;53.070;10.600;2022-09-21T14:57:05;102146.13;;;34.64;27.45
33189;BME280;52601;53.070;10.600;2022-09-21T15:00:19;102160.28;;;31.63;33.48
33189;BME280;52601;53.070;10.600;2022-09-21T15:06:28;102148.44;;;27.31;38.59
33189;BME280;52601;53.070;10.600;2022-09-21T15:09:58;102142.31;;;27.48;38.67
33189;BME280;52601;53.070;10.600;2022-09-21T15:19:26;102122.25;;;33.00;29.84
33189;BME280;52601;53.070;10.600;2022-09-21T15:22:19;102134.63;;;33.76;29.63
33189;BME280;52601;53.070;10.600;2022-09-21T15:25:11;102124.00;;;30.93;32.38
33189;BME280;52601;53.070;10.600;2022-09-21T15:27:57;102138.16;;;29.73;34.16
33189;BME280;52601;53.070;10.600;2022-09-21T15:30:44;102128.59;;;29.53;34.18
33189;BME280;52601;53.070;10.600;2022-09-21T15:33:30;102137.66;;;28.22;35.49
33189;BME280;52601;53.070;10.600;2022-09-21T15:36:22;102133.28;;;25.06;40.97
33189;BME280;52601;53.070;10.600;2022-09-21T15:45:11;102135.53;;;23.06;45.37
33189;BME280;52601;53.070;10.600;2022-09-21T15:47:57;102138.72;;;24.42;45.00
33189;BME280;52601;53.070;10.600;2022-09-21T15:50:45;102132.13;;;24.99;43.12
33189;BME280;52601;53.070;10.600;2022-09-21T15:53:37;102137.53;;;23.81;44.96
33189;BME280;52601;53.070;10.600;2022-09-21T15:56:27;102135.25;;;22.05;47.11
33189;BME280;52601;53.070;10.600;2022-09-21T15:59:16;102135.00;;;21.47;49.28
33189;BME280;52601;53.070;10.600;2022-09-21T16:02:10;102140.09;;;20.87;51.39
33189;BME280;52601;53.070;10.600;2022-09-21T16:04:56;102134.84;;;19.78;52.30
33189;BME280;52601;53.070;10.600;2022-09-21T16:07:44;102141.81;;;19.53;54.26
33189;BME280;52601;53.070;10.600;2022-09-21T16:13:21;102153.59;;;19.21;54.88
33189;BME280;52601;53.070;10.600;2022-09-21T16:16:26;102151.56;;;19.10;55.23
33189;BME280;52601;53.070;10.600;2022-09-21T16:19:11;102148.09;;;18.80;55.82
33189;BME280;52601;53.070;10.600;2022-09-21T16:22:03;102153.72;;;18.89;55.87
33189;BME280;52601;53.070;10.600;2022-09-21T16:24:50;102152.94;;;18.87;55.41